createdAt,value
2018-09-19T00:00:50.239Z,4.00
2018-09-19T00:03:18.220Z,3.57
2018-09-19T00:05:46.191Z,4.17
2018-09-19T00:08:14.249Z,4.30
2018-09-19T00:10:42.267Z,4.37
2018-09-19T00:13:10.280Z,4.23
2018-09-19T00:15:38.424Z,4.53
2018-09-19T00:18:06.468Z,4.27
2018-09-19T00:20:34.456Z,4.70
2018-09-19T00:23:02.437Z,4.50
2018-09-19T00:25:30.444Z,3.93
2018-09-19T00:27:58.478Z,4.27
2018-09-19T00:30:26.612Z,4.77
2018-09-19T00:32:54.623Z,4.13
2018-09-19T00:35:22.624Z,4.10
2018-09-19T00:37:50.629Z,4.20
2018-09-19T00:40:18.703Z,4.63
2018-09-19T00:42:46.952Z,4.33
2018-09-19T00:45:14.934Z,4.30
2018-09-19T00:47:43.028Z,3.80
2018-09-19T00:50:11.033Z,4.30
2018-09-19T00:52:39.018Z,4.67
2018-09-19T00:55:07.009Z,4.50
2018-09-19T00:57:35.013Z,4.27
2018-09-19T01:00:03.023Z,4.20
2018-09-19T01:02:31.064Z,4.10
2018-09-19T01:04:59.094Z,3.97
2018-09-19T01:07:27.144Z,3.83
2018-09-19T01:09:55.167Z,3.80
2018-09-19T01:12:23.145Z,4.17
2018-09-19T01:14:51.157Z,3.63
2018-09-19T01:17:19.140Z,3.93
2018-09-19T01:19:47.159Z,4.10
2018-09-19T01:22:15.201Z,4.03
2018-09-19T01:24:43.222Z,3.80
2018-09-19T01:27:11.233Z,3.50
2018-09-19T01:29:39.237Z,3.57
2018-09-19T01:32:07.335Z,4.10
2018-09-19T01:34:35.374Z,3.70
2018-09-19T01:37:03.437Z,3.73
2018-09-19T01:39:31.430Z,3.80
2018-09-19T01:41:59.450Z,4.17
2018-09-19T01:44:27.462Z,4.00
2018-09-19T01:46:55.455Z,4.00
2018-09-19T01:49:23.497Z,4.03
2018-09-19T01:51:54.122Z,4.33
2018-09-19T01:54:23.057Z,3.77
2018-09-19T01:56:51.078Z,3.93
2018-09-19T01:59:19.085Z,3.90
2018-09-19T02:01:47.209Z,4.00
2018-09-19T02:04:15.229Z,3.87
2018-09-19T02:06:43.285Z,3.97
2018-09-19T02:09:12.804Z,3.63
2018-09-19T02:11:41.397Z,3.83
2018-09-19T02:14:10.370Z,3.33
2018-09-19T02:16:39.146Z,3.60
2018-09-19T02:19:07.656Z,3.20
2018-09-19T02:21:35.973Z,4.10
2018-09-19T02:24:04.231Z,4.03
2018-09-19T02:26:32.533Z,3.90
2018-09-19T02:29:00.777Z,4.00
2018-09-19T02:31:29.113Z,3.97
2018-09-19T02:49:10.271Z,3.90
2018-09-19T02:51:38.506Z,3.90
2018-09-19T02:54:07.131Z,4.10
2018-09-19T02:56:35.409Z,3.80
2018-09-19T02:59:03.686Z,4.20
2018-09-19T03:01:31.974Z,4.17
2018-09-19T03:04:00.255Z,3.67
2018-09-19T03:06:28.569Z,4.30
2018-09-19T03:08:56.828Z,3.87
2018-09-19T03:11:25.079Z,3.70
2018-09-19T03:13:53.099Z,3.60
2018-09-19T03:16:21.093Z,3.77
2018-09-19T03:18:49.129Z,3.53
2018-09-19T03:21:17.383Z,3.70
2018-09-19T03:23:46.294Z,3.70
2018-09-19T03:26:14.275Z,3.67
2018-09-19T03:28:42.291Z,3.90
2018-09-19T03:31:10.598Z,4.20
2018-09-19T03:33:38.830Z,4.13
2018-09-19T03:36:07.109Z,3.87
2018-09-19T03:38:35.383Z,3.50
2018-09-19T03:41:03.627Z,3.60
2018-09-19T03:43:31.895Z,4.03
2018-09-19T03:46:00.167Z,4.07
2018-09-19T03:48:28.445Z,3.90
2018-09-19T03:50:56.709Z,4.13
2018-09-19T03:53:24.996Z,4.00
2018-09-19T03:55:53.334Z,4.53
2018-09-19T03:58:21.671Z,4.53
2018-09-19T04:00:49.902Z,4.33
2018-09-19T04:03:18.739Z,3.80
2018-09-19T04:05:47.559Z,4.57
2018-09-19T04:08:15.819Z,4.40
2018-09-19T04:10:44.148Z,3.93
2018-09-19T04:13:12.130Z,4.43
2018-09-19T04:15:40.142Z,4.27
2018-09-19T04:18:08.178Z,3.90
2018-09-19T04:20:36.408Z,3.87
2018-09-19T04:23:04.699Z,4.30
2018-09-19T04:25:32.976Z,4.42
2018-09-19T04:28:01.254Z,3.70
2018-09-19T04:30:29.504Z,3.90
2018-09-19T04:32:57.916Z,4.10
2018-09-19T04:35:26.201Z,3.80
2018-09-19T04:37:54.458Z,4.57
2018-09-19T04:40:22.702Z,3.67
2018-09-19T04:42:50.974Z,4.43
2018-09-19T04:45:19.315Z,4.70
2018-09-19T04:47:47.807Z,4.33
2018-09-19T04:50:16.084Z,4.93
2018-09-19T04:52:44.350Z,5.03
2018-09-19T04:55:14.683Z,4.90
2018-09-19T04:57:43.026Z,5.07
2018-09-19T05:00:11.762Z,5.40
2018-09-19T05:02:40.556Z,5.85
2018-09-19T05:05:08.903Z,5.50
2018-09-19T05:07:37.271Z,5.33
2018-09-19T05:10:05.668Z,5.53
2018-09-19T05:12:33.983Z,5.30
2018-09-19T05:15:02.283Z,4.93
2018-09-19T05:17:30.564Z,5.20
2018-09-19T05:19:58.845Z,5.67
2018-09-19T05:22:27.207Z,5.40
2018-09-19T05:24:55.498Z,5.73
2018-09-19T05:27:23.523Z,5.63
2018-09-19T05:29:51.824Z,5.33
2018-09-19T05:32:20.248Z,5.33
2018-09-19T05:34:49.013Z,6.00
2018-09-19T05:37:17.343Z,5.93
2018-09-19T05:39:45.427Z,6.07
2018-09-19T05:42:13.407Z,5.97
2018-09-19T05:44:41.496Z,5.57
2018-09-19T05:47:09.959Z,5.60
2018-09-19T05:49:38.215Z,5.67
2018-09-19T05:52:06.576Z,5.60
2018-09-19T05:54:34.920Z,5.93
2018-09-19T05:57:03.127Z,6.73
2018-09-19T05:59:31.419Z,6.93
2018-09-19T06:01:59.720Z,6.53
2018-09-19T06:04:27.828Z,6.43
2018-09-19T06:06:55.862Z,6.43
2018-09-19T06:09:23.852Z,6.47
2018-09-19T06:11:51.852Z,6.33
2018-09-19T06:14:20.129Z,5.77
2018-09-19T06:16:48.487Z,6.53
2018-09-19T06:19:16.733Z,6.13
2018-09-19T06:21:45.013Z,6.50
2018-09-19T06:24:13.012Z,6.10
2018-09-19T06:26:41.289Z,6.53
2018-09-19T06:29:09.560Z,6.43
2018-09-19T06:31:37.831Z,6.50
2018-09-19T06:34:06.574Z,6.57
2018-09-19T06:36:34.565Z,6.63
2018-09-19T06:39:02.835Z,6.77
2018-09-19T06:41:30.841Z,7.17
2018-09-19T06:43:59.099Z,6.77
2018-09-19T06:46:27.378Z,6.50
2018-09-19T06:48:55.696Z,6.75
2018-09-19T06:51:24.120Z,6.97
2018-09-19T06:53:52.404Z,6.20
2018-09-19T06:56:20.648Z,7.03
2018-09-19T06:58:48.948Z,7.10
2018-09-19T07:01:16.924Z,6.73
2018-09-19T07:03:44.951Z,6.03
2018-09-19T07:06:13.841Z,5.70
2018-09-19T07:08:42.135Z,6.10
2018-09-19T07:11:10.576Z,5.57
2018-09-19T07:13:38.857Z,5.43
2018-09-19T07:16:07.164Z,5.60
2018-09-19T07:18:35.589Z,5.17
2018-09-19T07:21:03.833Z,5.00
2018-09-19T07:23:32.379Z,5.27
2018-09-19T07:26:00.721Z,4.80
2018-09-19T07:28:28.981Z,5.33
2018-09-19T07:30:57.373Z,5.13
2018-09-19T07:33:25.809Z,5.77
2018-09-19T07:35:54.937Z,5.73
2018-09-19T07:38:23.216Z,5.17
2018-09-19T07:40:51.585Z,5.10
2018-09-19T07:43:20.141Z,5.50
2018-09-19T07:45:48.416Z,5.20
2018-09-19T07:48:16.740Z,5.60
2018-09-19T07:50:44.996Z,5.30
2018-09-19T07:53:13.481Z,5.67
2018-09-19T07:55:41.814Z,4.87
2018-09-19T07:58:10.025Z,4.83
2018-09-19T08:00:38.866Z,5.10
2018-09-19T08:03:06.957Z,4.87
2018-09-19T08:05:35.394Z,4.87
2018-09-19T08:08:04.085Z,5.13
2018-09-19T08:10:32.337Z,4.70
2018-09-19T08:13:00.814Z,4.83
2018-09-19T08:15:29.091Z,4.93
2018-09-19T08:17:57.387Z,5.00
2018-09-19T08:20:25.462Z,5.20
2018-09-19T08:22:53.473Z,5.00
2018-09-19T08:25:21.724Z,4.50
2018-09-19T08:27:50.146Z,4.70
2018-09-19T08:30:18.901Z,4.30
2018-09-19T08:32:47.509Z,4.50
2018-09-19T08:35:15.844Z,5.03
2018-09-19T08:37:44.171Z,4.47
2018-09-19T08:40:12.527Z,4.70
2018-09-19T08:42:46.525Z,4.53
2018-09-19T08:45:15.179Z,4.87
2018-09-19T08:47:43.581Z,5.07
2018-09-19T08:50:11.846Z,4.40
2018-09-19T08:52:40.125Z,5.40
2018-09-19T08:55:08.432Z,4.50
2018-09-19T08:57:36.440Z,4.83
2018-09-19T09:00:04.494Z,5.07
2018-09-19T09:02:32.522Z,5.37
2018-09-19T09:05:00.556Z,5.03
2018-09-19T09:07:28.573Z,4.47
2018-09-19T09:09:56.605Z,5.30
2018-09-19T09:12:24.647Z,4.83
2018-09-19T09:14:52.654Z,4.60
2018-09-19T09:17:21.113Z,5.00
2018-09-19T09:19:49.176Z,4.93
2018-09-19T09:22:17.261Z,4.50
2018-09-19T09:24:45.377Z,5.33
2018-09-19T09:27:13.709Z,5.20
2018-09-19T09:29:42.032Z,5.00
2018-09-19T09:32:10.017Z,5.23
2018-09-19T09:34:38.152Z,5.07
2018-09-19T09:37:06.213Z,5.63
2018-09-19T09:39:34.636Z,5.25
2018-09-19T09:42:02.664Z,4.60
2018-09-19T09:44:30.715Z,5.35
2018-09-19T09:46:58.765Z,5.40
2018-09-19T09:49:26.804Z,4.78
2018-09-19T09:51:54.840Z,4.20
2018-09-19T09:54:22.921Z,4.33
2018-09-19T09:56:51.105Z,4.35
2018-09-19T09:59:19.213Z,4.50
2018-09-19T10:01:47.259Z,4.83
2018-09-19T10:04:15.654Z,4.72
2018-09-19T10:06:43.850Z,5.20
2018-09-19T10:09:11.948Z,5.10
2018-09-19T10:11:40.023Z,4.42
2018-09-19T10:14:08.175Z,5.07
2018-09-19T10:16:36.234Z,4.87
2018-09-19T10:19:04.591Z,4.40
2018-09-19T10:21:32.615Z,4.58
2018-09-19T10:24:01.735Z,4.17
2018-09-19T10:26:29.730Z,4.20
2018-09-19T10:28:57.785Z,4.60
2018-09-19T10:31:25.963Z,4.33
2018-09-19T10:33:53.942Z,3.98
2018-09-19T10:36:21.939Z,4.08
2018-09-19T10:38:50.191Z,3.77
2018-09-19T10:41:18.231Z,4.05
2018-09-19T10:43:46.243Z,3.98
2018-09-19T10:46:14.871Z,4.45
2018-09-19T10:48:42.961Z,3.95
2018-09-19T10:51:11.623Z,4.00
2018-09-19T10:53:39.611Z,3.77
2018-09-19T10:56:07.605Z,4.03
2018-09-19T10:58:35.610Z,4.17
2018-09-19T11:01:03.630Z,4.07
2018-09-19T11:03:31.663Z,4.25
2018-09-19T11:05:59.681Z,4.58
2018-09-19T11:08:27.695Z,4.58
2018-09-19T11:10:55.862Z,4.10
2018-09-19T11:13:23.896Z,4.45
2018-09-19T11:15:51.959Z,4.45
2018-09-19T11:18:19.943Z,4.97
2018-09-19T11:20:47.963Z,4.25
2018-09-19T11:23:16.582Z,4.45
2018-09-19T11:25:44.859Z,4.83
2018-09-19T11:28:12.895Z,4.60
2018-09-19T11:30:41.195Z,4.92
2018-09-19T11:33:09.227Z,5.37
2018-09-19T11:35:37.291Z,5.65
2018-09-19T11:38:05.307Z,5.17
2018-09-19T11:40:33.314Z,4.80
2018-09-19T11:43:01.500Z,4.67
2018-09-19T11:45:29.640Z,4.15
2018-09-19T11:47:57.660Z,5.08
2018-09-19T11:50:25.648Z,4.45
2018-09-19T11:52:53.672Z,4.17
2018-09-19T11:55:21.725Z,4.55
2018-09-19T11:57:50.053Z,4.48
2018-09-19T12:00:18.821Z,4.37
2018-09-19T12:02:46.826Z,4.90
2018-09-19T12:05:14.988Z,3.80
2018-09-19T12:07:43.876Z,3.90
2018-09-19T12:10:11.993Z,3.70
2018-09-19T12:12:40.025Z,3.77
2018-09-19T12:15:08.049Z,3.93
2018-09-19T12:17:36.041Z,3.30
2018-09-19T12:20:04.061Z,4.12
2018-09-19T12:22:32.113Z,4.00
2018-09-19T12:25:00.524Z,4.22
2018-09-19T12:27:28.521Z,4.65
2018-09-19T12:29:56.597Z,3.90
2018-09-19T12:32:24.700Z,3.80
2018-09-19T12:34:52.712Z,3.62
2018-09-19T12:37:20.737Z,3.98
2018-09-19T12:39:49.809Z,4.15
2018-09-19T12:42:17.877Z,3.80
2018-09-19T12:44:46.517Z,4.03
2018-09-19T12:47:14.619Z,3.77
2018-09-19T12:49:42.633Z,3.75
2018-09-19T12:52:10.813Z,3.55
2018-09-19T12:54:39.082Z,3.90
2018-09-19T12:57:07.321Z,4.10
2018-09-19T12:59:35.558Z,3.80
2018-09-19T13:02:04.153Z,3.65
2018-09-19T13:04:32.206Z,3.85
2018-09-19T13:07:00.401Z,3.70
2018-09-19T13:09:28.497Z,3.50
2018-09-19T13:11:56.529Z,4.45
2018-09-19T13:14:24.522Z,4.10
2018-09-19T13:16:52.673Z,3.83
2018-09-19T13:19:20.734Z,3.92
2018-09-19T13:21:48.897Z,3.70
2018-09-19T13:24:16.911Z,4.55
2018-09-19T13:26:45.721Z,4.05
2018-09-19T13:29:13.730Z,4.08
2018-09-19T13:31:41.846Z,3.92
2018-09-19T13:34:09.889Z,4.50
2018-09-19T13:36:38.466Z,4.53
2018-09-19T13:39:07.523Z,3.83
2018-09-19T13:41:35.547Z,3.77
2018-09-19T13:44:03.562Z,4.10
2018-09-19T13:46:31.563Z,4.35
2018-09-19T13:49:05.459Z,4.20
2018-09-19T13:51:33.471Z,4.25
2018-09-19T13:54:01.858Z,3.90
2018-09-19T13:56:29.846Z,4.60
2018-09-19T13:58:57.950Z,4.40
2018-09-19T14:01:25.903Z,4.20
2018-09-19T14:03:53.955Z,4.53
2018-09-19T14:06:22.247Z,3.80
2018-09-19T14:08:51.047Z,3.98
2018-09-19T14:11:19.163Z,3.80
2018-09-19T14:13:47.255Z,4.30
2018-09-19T14:16:15.326Z,4.12
2018-09-19T14:18:43.610Z,3.83
2018-09-19T14:21:11.663Z,4.10
2018-09-19T14:23:39.703Z,3.90
2018-09-19T14:26:07.695Z,3.90
2018-09-19T14:28:35.944Z,3.55
2018-09-19T14:31:03.951Z,3.90
2018-09-19T14:33:31.964Z,3.95
2018-09-19T14:36:00.076Z,4.72
2018-09-19T14:38:32.832Z,4.35
2018-09-19T14:41:01.129Z,3.67
2018-09-19T14:43:29.138Z,3.60
2018-09-19T14:45:57.140Z,4.20
2018-09-19T14:48:25.338Z,3.95
2018-09-19T14:50:53.392Z,4.00
2018-09-19T14:53:21.388Z,4.10
2018-09-19T14:55:49.829Z,3.77
2018-09-19T14:58:20.849Z,4.17
2018-09-19T15:00:48.957Z,3.58
2018-09-19T15:03:17.368Z,4.05
2018-09-19T15:05:45.400Z,3.83
2018-09-19T15:08:13.635Z,3.85
2018-09-19T15:10:41.713Z,4.60
2018-09-19T15:13:09.741Z,4.00
2018-09-19T15:15:38.090Z,3.90
2018-09-19T15:18:06.186Z,3.45
2018-09-19T15:20:34.500Z,4.05
2018-09-19T15:23:02.508Z,3.70
2018-09-19T15:25:30.510Z,4.00
2018-09-19T15:27:58.547Z,3.72
2018-09-19T15:30:26.553Z,3.72
2018-09-19T15:32:54.666Z,3.37
2018-09-19T15:35:23.045Z,3.67
2018-09-19T15:37:51.265Z,3.75
2018-09-19T15:40:19.365Z,3.70
2018-09-19T15:42:47.377Z,3.80
2018-09-19T15:45:15.405Z,3.33
2018-09-19T15:47:43.414Z,3.77
2018-09-19T15:50:11.437Z,3.70
2018-09-19T15:52:39.453Z,3.70
2018-09-19T15:55:07.461Z,3.80
2018-09-19T15:57:35.517Z,3.60
2018-09-19T16:00:03.526Z,3.52
2018-09-19T16:02:31.522Z,3.20
2018-09-19T16:04:59.542Z,3.65
2018-09-19T16:07:27.570Z,3.85
2018-09-19T16:09:55.562Z,3.80
2018-09-19T16:12:23.601Z,3.83
2018-09-19T16:14:51.670Z,3.42
2018-09-19T16:17:19.673Z,3.77
2018-09-19T16:19:47.684Z,3.75
2018-09-19T16:22:16.062Z,3.80
2018-09-19T16:24:44.107Z,3.77
2018-09-19T16:27:12.266Z,3.77
2018-09-19T16:29:40.297Z,3.30
2018-09-19T16:32:08.310Z,3.98
2018-09-19T16:34:36.319Z,3.83
2018-09-19T16:37:04.318Z,3.60
2018-09-19T16:39:32.319Z,3.40
2018-09-19T16:42:00.391Z,3.45
2018-09-19T16:44:28.382Z,3.67
2018-09-19T16:46:57.924Z,3.72
2018-09-19T16:49:26.014Z,3.27
2018-09-19T16:51:53.998Z,3.85
2018-09-19T16:54:21.994Z,3.77
2018-09-19T16:56:50.110Z,4.22
2018-09-19T16:59:18.104Z,4.20
2018-09-19T17:01:46.102Z,3.90
2018-09-19T17:04:14.139Z,3.75
2018-09-19T17:06:42.112Z,4.03
2018-09-19T17:09:10.104Z,4.53
2018-09-19T17:11:38.128Z,4.15
2018-09-19T17:14:06.432Z,3.87
2018-09-19T17:16:34.560Z,3.95
2018-09-19T17:19:02.635Z,3.92
2018-09-19T17:21:37.304Z,4.40
2018-09-19T17:24:05.558Z,4.00
2018-09-19T17:26:33.774Z,3.80
2018-09-19T17:29:01.795Z,4.03
2018-09-19T17:31:29.819Z,4.20
2018-09-19T17:33:57.810Z,4.22
2018-09-19T17:36:25.871Z,4.45
2018-09-19T17:38:53.843Z,3.80
2018-09-19T17:41:21.899Z,4.30
2018-09-19T17:43:50.410Z,4.75
2018-09-19T17:46:18.423Z,4.25
2018-09-19T17:48:46.431Z,4.30
2018-09-19T17:51:14.423Z,3.90
2018-09-19T17:53:42.408Z,3.93
2018-09-19T17:56:10.659Z,4.60
2018-09-19T17:58:38.723Z,4.90
2018-09-19T18:01:06.740Z,6.40
2018-09-19T18:03:34.763Z,4.50
2018-09-19T18:06:02.767Z,4.30
2018-09-19T18:08:30.838Z,4.37
2018-09-19T18:10:58.870Z,4.53
2018-09-19T18:13:26.903Z,4.83
2018-09-19T18:15:54.983Z,5.17
2018-09-19T18:18:22.997Z,5.80
2018-09-19T18:20:51.820Z,5.17
2018-09-19T18:23:20.440Z,5.83
2018-09-19T18:25:48.488Z,5.07
2018-09-19T18:28:16.492Z,5.23
2018-09-19T18:30:44.525Z,4.53
2018-09-19T18:33:12.540Z,5.40
2018-09-19T18:35:40.546Z,5.40
2018-09-19T18:38:08.532Z,5.47
2018-09-19T18:40:36.584Z,5.40
2018-09-19T18:43:04.656Z,5.33
2018-09-19T18:45:32.704Z,4.73
2018-09-19T18:48:00.720Z,6.00
2018-09-19T18:50:28.729Z,4.73
2018-09-19T18:52:56.757Z,5.30
2018-09-19T18:55:24.749Z,4.60
2018-09-19T18:57:52.798Z,5.63
2018-09-19T19:00:20.877Z,4.83
2018-09-19T19:02:48.900Z,4.60
2018-09-19T19:05:16.941Z,4.67
2018-09-19T19:07:45.029Z,4.77
2018-09-19T19:10:13.073Z,4.53
2018-09-19T19:12:41.073Z,4.30
2018-09-19T19:15:09.525Z,4.87
2018-09-19T19:17:37.865Z,4.70
2018-09-19T19:20:06.249Z,4.43
2018-09-19T19:22:34.489Z,5.10
2018-09-19T19:25:02.661Z,4.57
2018-09-19T19:27:30.749Z,5.30
2018-09-19T19:29:58.821Z,5.13
2018-09-19T19:32:27.513Z,4.60
2018-09-19T19:34:55.645Z,4.60
2018-09-19T19:37:23.675Z,4.87
2018-09-19T19:39:52.498Z,4.80
2018-09-19T19:42:20.542Z,4.80
2018-09-19T19:44:50.679Z,4.53
2018-09-19T19:47:19.149Z,4.90
2018-09-19T19:49:47.169Z,4.90
2018-09-19T19:52:16.190Z,4.53
2018-09-19T19:54:44.409Z,4.30
2018-09-19T19:57:12.510Z,4.30
2018-09-19T19:59:40.646Z,4.77
2018-09-19T20:02:08.866Z,4.53
2018-09-19T20:04:36.910Z,4.47
2018-09-19T20:07:05.291Z,4.30
2018-09-19T20:09:33.368Z,4.47
2018-09-19T20:12:01.626Z,4.27
2018-09-19T20:14:29.753Z,4.17
2018-09-19T20:16:57.759Z,4.97
2018-09-19T20:19:26.271Z,4.60
2018-09-19T20:21:54.299Z,5.10
2018-09-19T20:24:22.390Z,4.33
2018-09-19T20:26:50.442Z,4.30
2018-09-19T20:29:20.318Z,4.13
2018-09-19T20:31:48.389Z,4.37
2018-09-19T20:34:16.461Z,4.70
2018-09-19T20:36:44.390Z,3.53
2018-09-19T20:39:13.098Z,4.00
2018-09-19T20:41:41.239Z,4.50
2018-09-19T20:44:09.411Z,4.10
2018-09-19T20:46:38.091Z,4.00
2018-09-19T20:49:06.132Z,4.40
2018-09-19T20:51:34.155Z,4.23
2018-09-19T20:54:02.326Z,4.40
2018-09-19T20:56:30.379Z,4.07
2018-09-19T20:59:00.651Z,4.73
2018-09-19T21:01:28.786Z,4.80
2018-09-19T21:03:56.907Z,4.30
2018-09-19T21:06:24.934Z,3.90
2018-09-19T21:08:53.344Z,4.30
2018-09-19T21:11:21.419Z,4.63
2018-09-19T21:13:49.424Z,4.10
2018-09-19T21:16:18.387Z,4.20
2018-09-19T21:18:47.775Z,4.40
2018-09-19T21:21:16.600Z,4.63
2018-09-19T21:23:44.876Z,4.53
2018-09-19T21:26:14.632Z,4.63
2018-09-19T21:28:43.755Z,5.13
2018-09-19T21:31:11.932Z,4.83
2018-09-19T21:33:39.951Z,4.60
2018-09-19T21:36:08.011Z,4.37
2018-09-19T21:38:36.143Z,4.80
2018-09-19T21:41:04.151Z,5.20
2018-09-19T21:43:32.269Z,4.70
2018-09-19T21:46:00.291Z,4.57
2018-09-19T21:48:28.326Z,4.80
2018-09-19T21:50:56.307Z,5.20
2018-09-19T21:53:24.368Z,4.67
2018-09-19T21:55:53.163Z,5.03
2018-09-19T21:58:21.251Z,5.40
2018-09-19T22:00:55.298Z,4.70
2018-09-19T22:03:23.397Z,4.73
2018-09-19T22:05:51.494Z,4.83
2018-09-19T22:08:19.491Z,5.10
2018-09-19T22:10:47.495Z,4.33
2018-09-19T22:13:17.110Z,4.93
2018-09-19T22:15:45.539Z,5.07
2018-09-19T22:18:14.594Z,4.40
2018-09-19T22:20:42.791Z,5.63
2018-09-19T22:23:11.263Z,4.90
2018-09-19T22:25:39.642Z,4.53
2018-09-19T22:28:17.266Z,5.23
2018-09-19T22:30:45.574Z,4.97
2018-09-19T22:33:13.998Z,4.90
2018-09-19T22:35:42.011Z,5.20
2018-09-19T22:38:11.537Z,4.50
2018-09-19T22:40:39.591Z,4.57
2018-09-19T22:43:07.622Z,4.70
2018-09-19T22:45:35.827Z,4.97
2018-09-19T22:48:03.922Z,4.70
2018-09-19T22:50:31.991Z,4.47
2018-09-19T22:53:00.027Z,4.33
2018-09-19T23:07:13.822Z,4.73
2018-09-19T23:09:42.875Z,4.47
2018-09-19T23:12:11.115Z,4.60
2018-09-19T23:14:39.191Z,5.10
2018-09-19T23:17:07.319Z,5.10
2018-09-19T23:19:35.322Z,4.60
2018-09-19T23:22:03.535Z,4.83
2018-09-19T23:24:31.546Z,4.77
2018-09-19T23:27:02.198Z,4.57
2018-09-19T23:29:30.247Z,4.47
2018-09-19T23:31:58.448Z,4.30
2018-09-19T23:34:28.604Z,4.70
2018-09-19T23:36:56.752Z,4.23
2018-09-19T23:39:24.745Z,4.70
2018-09-19T23:41:53.504Z,4.60
2018-09-19T23:44:21.492Z,4.53
2018-09-19T23:46:49.619Z,4.57
2018-09-19T23:49:18.140Z,4.77
2018-09-19T23:51:46.285Z,4.87
2018-09-19T23:54:14.669Z,4.93
2018-09-19T23:56:43.361Z,4.93
2018-09-19T23:59:11.565Z,5.07
